createdAt,value
2022-09-25T00:00:36.874Z,59.54
2022-09-25T00:03:03.712Z,59.62
2022-09-25T00:05:30.122Z,59.44
2022-09-25T00:07:56.468Z,59.42
2022-09-25T00:10:25.207Z,59.45
2022-09-25T00:12:51.820Z,59.61
2022-09-25T00:15:18.131Z,59.70
2022-09-25T00:17:44.453Z,59.40
2022-09-25T00:20:10.775Z,59.56
2022-09-25T00:22:37.104Z,59.60
2022-09-25T00:25:03.658Z,59.58
2022-09-25T00:27:29.981Z,59.26
2022-09-25T00:29:56.307Z,59.33
2022-09-25T00:32:22.868Z,59.27
2022-09-25T00:34:49.190Z,59.44
2022-09-25T00:37:15.528Z,59.40
2022-09-25T00:39:41.867Z,59.59
2022-09-25T00:42:11.436Z,59.49
2022-09-25T00:44:52.518Z,59.56
2022-09-25T00:47:20.490Z,59.46
2022-09-25T00:49:46.795Z,59.56
2022-09-25T00:52:13.169Z,59.75
2022-09-25T00:54:40.939Z,59.57
2022-09-25T00:57:08.155Z,59.58
2022-09-25T00:59:36.030Z,59.65
2022-09-25T01:02:02.416Z,59.60
2022-09-25T01:04:28.877Z,59.52
2022-09-25T01:06:55.344Z,59.55
2022-09-25T01:09:21.729Z,59.40
2022-09-25T01:11:48.053Z,59.42
2022-09-25T01:14:17.314Z,59.55
2022-09-25T01:16:47.348Z,59.51
2022-09-25T01:19:31.589Z,59.72
2022-09-25T01:22:05.024Z,59.53
2022-09-25T01:24:50.353Z,59.49
2022-09-25T01:27:20.019Z,59.51
2022-09-25T01:30:05.647Z,59.54
2022-09-25T01:32:33.611Z,59.60
2022-09-25T01:34:59.842Z,59.56
2022-09-25T01:37:26.825Z,59.46
2022-09-25T01:40:05.698Z,59.51
2022-09-25T01:42:34.932Z,59.59
2022-09-25T01:45:03.007Z,59.54
2022-09-25T01:47:29.465Z,59.62
2022-09-25T01:49:56.808Z,59.65
2022-09-25T01:52:25.264Z,59.53
2022-09-25T01:54:53.071Z,59.60
2022-09-25T01:57:20.737Z,59.52
2022-09-25T01:59:49.247Z,59.59
2022-09-25T02:02:19.173Z,59.60
2022-09-25T02:05:00.274Z,59.56
2022-09-25T02:07:28.030Z,59.47
2022-09-25T02:10:02.942Z,59.45
2022-09-25T02:12:34.275Z,59.60
2022-09-25T02:15:05.791Z,59.60
2022-09-25T02:17:58.988Z,59.50
2022-09-25T02:20:34.400Z,59.55
2022-09-25T02:23:08.768Z,59.45
2022-09-25T02:25:37.323Z,59.61
2022-09-25T02:28:03.793Z,59.65
2022-09-25T02:30:30.231Z,59.52
2022-09-25T02:32:58.058Z,59.62
2022-09-25T02:35:25.019Z,59.53
2022-09-25T02:37:51.726Z,59.42
2022-09-25T02:40:18.056Z,59.65
2022-09-25T02:42:50.832Z,59.62
2022-09-25T02:45:35.608Z,59.61
2022-09-25T02:48:19.054Z,59.62
2022-09-25T02:50:51.340Z,59.52
2022-09-25T02:53:36.202Z,59.54
2022-09-25T02:56:25.106Z,59.55
2022-09-25T02:58:52.499Z,59.63
2022-09-25T03:01:18.980Z,59.73
2022-09-25T03:03:45.629Z,59.63
2022-09-25T03:06:12.097Z,59.35
2022-09-25T03:08:39.160Z,59.46
2022-09-25T03:11:05.860Z,59.70
2022-09-25T03:13:33.103Z,59.64
2022-09-25T03:16:00.438Z,59.52
2022-09-25T03:18:27.167Z,59.60
2022-09-25T03:20:53.504Z,59.59
2022-09-25T03:23:19.814Z,59.70
2022-09-25T03:25:50.155Z,59.82
2022-09-25T03:28:17.619Z,59.52
2022-09-25T03:30:44.444Z,59.74
2022-09-25T03:33:11.151Z,59.93
2022-09-25T03:35:37.632Z,59.43
2022-09-25T03:38:04.347Z,59.90
2022-09-25T03:40:32.620Z,59.93
2022-09-25T03:42:59.157Z,59.87
2022-09-25T03:45:25.458Z,59.87
2022-09-25T03:47:51.766Z,59.85
2022-09-25T03:50:18.069Z,60.11
2022-09-25T03:52:44.371Z,60.12
2022-09-25T03:55:11.910Z,60.32
2022-09-25T03:57:39.116Z,60.47
2022-09-25T04:00:06.125Z,60.62
2022-09-25T04:02:38.662Z,60.47
2022-09-25T04:05:05.236Z,60.71
2022-09-25T04:07:32.390Z,60.47
2022-09-25T04:09:58.686Z,60.41
2022-09-25T04:12:24.989Z,60.42
2022-09-25T04:14:51.290Z,60.57
2022-09-25T04:17:17.617Z,60.64
2022-09-25T04:19:43.923Z,60.76
2022-09-25T04:22:10.253Z,60.87
2022-09-25T04:24:48.971Z,60.68
2022-09-25T04:27:16.873Z,60.77
2022-09-25T04:29:43.376Z,60.88
2022-09-25T04:32:28.495Z,60.80
2022-09-25T04:34:54.811Z,60.70
2022-09-25T04:37:26.224Z,60.84
2022-09-25T04:39:55.855Z,60.91
2022-09-25T04:42:25.145Z,60.72
2022-09-25T04:44:52.419Z,60.92
2022-09-25T04:47:18.862Z,61.17
2022-09-25T04:49:45.167Z,61.03
2022-09-25T04:52:15.085Z,61.04
2022-09-25T04:54:42.115Z,60.94
2022-09-25T04:57:09.187Z,60.91
2022-09-25T04:59:35.722Z,60.93
2022-09-25T05:02:02.109Z,60.77
2022-09-25T05:04:28.520Z,61.17
2022-09-25T05:06:54.838Z,60.85
2022-09-25T05:09:21.145Z,60.79
2022-09-25T05:11:47.456Z,60.59
2022-09-25T05:14:13.915Z,61.04
2022-09-25T05:16:40.331Z,60.77
2022-09-25T05:19:06.699Z,60.69
2022-09-25T05:21:33.021Z,60.64
2022-09-25T05:23:59.331Z,60.75
2022-09-25T05:26:26.437Z,60.60
2022-09-25T05:28:52.745Z,60.85
2022-09-25T05:31:19.080Z,60.49
2022-09-25T05:33:45.460Z,60.33
2022-09-25T05:36:12.606Z,60.67
2022-09-25T05:38:39.345Z,60.82
2022-09-25T05:41:06.599Z,60.59
2022-09-25T05:43:32.917Z,60.52
2022-09-25T05:46:00.085Z,60.40
2022-09-25T05:48:26.451Z,60.58
2022-09-25T05:50:55.923Z,60.81
2022-09-25T05:53:22.361Z,61.13
2022-09-25T05:55:49.642Z,60.51
2022-09-25T05:58:15.946Z,60.68
2022-09-25T06:00:42.553Z,60.57
2022-09-25T06:03:09.015Z,60.60
2022-09-25T06:05:35.350Z,60.32
2022-09-25T06:08:01.728Z,60.47
2022-09-25T06:10:28.227Z,60.58
2022-09-25T06:12:58.953Z,60.75
2022-09-25T06:15:28.537Z,60.78
2022-09-25T06:17:55.476Z,60.64
2022-09-25T06:20:22.588Z,60.57
2022-09-25T06:22:54.942Z,60.40
2022-09-25T06:25:22.883Z,60.53
2022-09-25T06:27:51.834Z,60.65
2022-09-25T06:30:19.953Z,60.86
2022-09-25T06:32:46.426Z,60.57
2022-09-25T06:35:12.739Z,60.67
2022-09-25T06:37:39.079Z,60.61
2022-09-25T06:40:05.638Z,60.65
2022-09-25T06:42:35.030Z,60.98
2022-09-25T06:45:01.669Z,60.03
2022-09-25T06:47:27.980Z,59.61
2022-09-25T06:49:54.295Z,59.73
2022-09-25T06:52:20.605Z,59.66
2022-09-25T06:54:46.933Z,60.52
2022-09-25T06:57:13.239Z,59.97
2022-09-25T06:59:39.578Z,59.96
2022-09-25T07:02:24.806Z,60.47
2022-09-25T07:04:51.967Z,60.64
2022-09-25T07:07:21.259Z,60.52
2022-09-25T07:09:50.231Z,60.48
2022-09-25T07:12:18.314Z,60.35
2022-09-25T07:14:46.832Z,60.70
2022-09-25T07:17:13.649Z,60.72
2022-09-25T07:19:40.404Z,61.23
2022-09-25T07:22:06.901Z,61.63
2022-09-25T07:24:33.440Z,61.35
2022-09-25T07:26:59.822Z,61.48
2022-09-25T07:29:26.233Z,61.76
2022-09-25T07:31:52.567Z,61.34
2022-09-25T07:34:18.894Z,61.29
2022-09-25T07:36:45.284Z,61.28
2022-09-25T07:39:16.100Z,61.37
2022-09-25T07:41:43.989Z,61.17
2022-09-25T07:44:38.809Z,61.22
2022-09-25T07:46:56.619Z,61.60
2022-09-25T07:49:22.931Z,61.27
2022-09-25T07:51:49.266Z,61.17
2022-09-25T07:54:15.611Z,61.11
2022-09-25T07:56:41.948Z,61.33
2022-09-25T07:59:08.294Z,61.05
2022-09-25T08:01:38.216Z,61.09
2022-09-25T08:04:07.579Z,60.79
2022-09-25T08:06:34.246Z,61.24
2022-09-25T08:09:00.568Z,60.86
2022-09-25T08:11:28.097Z,60.90
2022-09-25T08:13:54.444Z,61.06
2022-09-25T08:16:22.665Z,60.94
2022-09-25T08:18:49.216Z,60.82
2022-09-25T08:21:16.638Z,60.76
2022-09-25T08:23:47.691Z,60.87
2022-09-25T08:26:14.437Z,61.13
2022-09-25T08:28:40.794Z,61.05
2022-09-25T08:31:08.940Z,61.00
2022-09-25T08:33:35.936Z,61.01
2022-09-25T08:36:02.539Z,60.84
2022-09-25T08:38:28.949Z,60.79
2022-09-25T08:40:56.218Z,60.71
2022-09-25T08:43:22.762Z,60.60
2022-09-25T08:46:07.948Z,60.48
2022-09-25T08:48:58.436Z,60.37
2022-09-25T08:51:24.741Z,60.38
2022-09-25T08:53:51.056Z,60.46
2022-09-25T08:56:20.428Z,60.52
2022-09-25T08:58:48.081Z,60.33
2022-09-25T09:01:15.295Z,60.44
2022-09-25T09:03:46.689Z,60.47
2022-09-25T09:06:14.314Z,60.39
2022-09-25T09:08:40.821Z,60.49
2022-09-25T09:11:11.351Z,60.77
2022-09-25T09:13:44.472Z,60.56
2022-09-25T09:16:15.724Z,60.43
2022-09-25T09:18:42.077Z,60.56
2022-09-25T09:21:11.580Z,60.49
2022-09-25T09:23:45.327Z,60.66
2022-09-25T09:26:21.074Z,60.53
2022-09-25T09:28:56.422Z,60.47
2022-09-25T09:31:36.152Z,60.40
2022-09-25T09:34:18.477Z,60.48
2022-09-25T09:36:56.690Z,60.52
2022-09-25T09:39:28.627Z,60.48
2022-09-25T09:41:58.189Z,60.61
2022-09-25T09:44:25.374Z,60.35
2022-09-25T09:46:52.323Z,60.57
2022-09-25T09:49:33.737Z,60.75
2022-09-25T09:52:02.143Z,60.67
2022-09-25T09:54:35.808Z,60.75
2022-09-25T09:57:03.061Z,60.62
2022-09-25T09:59:31.402Z,60.53
2022-09-25T10:02:01.725Z,60.56
2022-09-25T10:04:30.137Z,60.09
2022-09-25T10:06:58.894Z,58.70
2022-09-25T10:09:26.341Z,57.25
2022-09-25T10:12:03.499Z,56.64
2022-09-25T10:14:32.317Z,56.37
2022-09-25T10:16:58.628Z,56.41
2022-09-25T10:19:25.382Z,56.09
2022-09-25T10:21:53.026Z,56.16
2022-09-25T10:24:41.059Z,56.96
2022-09-25T10:27:19.944Z,57.94
2022-09-25T10:29:46.295Z,57.79
2022-09-25T10:32:12.624Z,57.61
2022-09-25T10:34:40.571Z,57.48
2022-09-25T10:37:19.638Z,57.54
2022-09-25T10:39:46.458Z,57.63
2022-09-25T10:42:33.072Z,57.70
2022-09-25T10:44:59.428Z,57.67
2022-09-25T10:47:48.328Z,57.86
2022-09-25T10:50:24.727Z,57.98
2022-09-25T10:52:52.865Z,58.07
2022-09-25T10:55:20.678Z,58.16
2022-09-25T10:57:47.041Z,58.20
2022-09-25T11:00:19.653Z,58.26
2022-09-25T11:02:46.532Z,58.24
2022-09-25T11:05:16.880Z,58.33
2022-09-25T11:08:02.367Z,58.34
2022-09-25T11:10:29.539Z,58.46
2022-09-25T11:12:56.739Z,59.00
2022-09-25T11:15:23.650Z,58.96
2022-09-25T11:17:50.652Z,58.69
2022-09-25T11:20:17.608Z,58.62
2022-09-25T11:22:51.842Z,58.71
2022-09-25T11:25:22.125Z,58.60
2022-09-25T11:27:53.446Z,58.86
2022-09-25T11:30:20.160Z,58.76
2022-09-25T11:32:52.385Z,58.84
2022-09-25T11:35:34.699Z,58.84
2022-09-25T11:38:17.523Z,59.03
2022-09-25T11:41:07.867Z,59.05
2022-09-25T11:43:39.412Z,59.17
2022-09-25T11:46:24.667Z,59.33
2022-09-25T11:48:54.574Z,59.65
2022-09-25T11:51:29.055Z,59.72
2022-09-25T11:54:32.688Z,59.89
2022-09-25T11:57:04.695Z,59.85
2022-09-25T11:59:49.835Z,59.93
2022-09-25T12:02:21.542Z,60.13
2022-09-25T12:04:59.095Z,59.96
2022-09-25T12:07:33.382Z,60.19
2022-09-25T12:10:06.754Z,60.10
2022-09-25T12:12:52.005Z,60.08
2022-09-25T12:15:25.424Z,60.05
2022-09-25T12:17:57.920Z,60.14
2022-09-25T12:20:42.903Z,59.81
2022-09-25T12:23:13.353Z,59.13
2022-09-25T12:25:58.304Z,57.14
2022-09-25T12:28:39.977Z,58.29
2022-09-25T12:31:13.689Z,58.57
2022-09-25T12:33:49.545Z,58.62
2022-09-25T12:36:26.042Z,58.28
2022-09-25T12:38:55.465Z,58.28
2022-09-25T12:41:34.363Z,58.50
2022-09-25T12:44:02.178Z,58.77
2022-09-25T12:46:37.713Z,58.29
2022-09-25T12:49:14.227Z,58.32
2022-09-25T12:51:41.543Z,58.16
2022-09-25T12:54:15.707Z,58.04
2022-09-25T12:56:43.844Z,58.19
2022-09-25T12:59:11.846Z,58.36
2022-09-25T13:01:47.447Z,58.31
2022-09-25T13:04:18.454Z,58.27
2022-09-25T13:06:50.129Z,57.81
2022-09-25T13:09:30.446Z,57.97
2022-09-25T13:12:01.830Z,57.91
2022-09-25T13:14:42.542Z,57.30
2022-09-25T13:17:10.575Z,57.67
2022-09-25T13:19:36.913Z,55.71
2022-09-25T13:22:06.319Z,56.44
2022-09-25T13:24:39.689Z,57.24
2022-09-25T13:27:06.492Z,57.47
2022-09-25T13:29:35.537Z,56.93
2022-09-25T13:32:02.392Z,57.02
2022-09-25T13:34:28.729Z,57.05
2022-09-25T13:36:57.768Z,56.01
2022-09-25T13:39:46.237Z,56.96
2022-09-25T13:42:14.080Z,56.48
2022-09-25T13:44:43.560Z,56.79
2022-09-25T13:47:30.047Z,55.90
2022-09-25T13:50:11.556Z,55.19
2022-09-25T13:52:40.645Z,54.81
2022-09-25T13:55:13.152Z,55.44
2022-09-25T13:58:01.758Z,56.27
2022-09-25T14:00:33.647Z,56.25
2022-09-25T14:03:03.121Z,56.10
2022-09-25T14:05:36.002Z,56.16
2022-09-25T14:08:03.510Z,56.18
2022-09-25T14:10:29.818Z,55.86
2022-09-25T14:12:56.145Z,55.78
2022-09-25T14:15:23.906Z,55.65
2022-09-25T14:17:50.840Z,55.84
2022-09-25T14:20:23.462Z,55.59
2022-09-25T14:22:53.259Z,56.06
2022-09-25T14:25:33.121Z,55.67
2022-09-25T14:28:00.672Z,54.95
2022-09-25T14:30:30.023Z,55.55
2022-09-25T14:33:14.020Z,55.88
2022-09-25T14:35:47.610Z,56.50
2022-09-25T14:38:13.884Z,56.28
2022-09-25T14:40:40.886Z,56.95
2022-09-25T14:43:11.082Z,56.80
2022-09-25T14:45:40.532Z,56.98
2022-09-25T14:48:09.481Z,57.25
2022-09-25T14:50:36.643Z,57.22
2022-09-25T14:53:04.744Z,57.39
2022-09-25T14:55:33.521Z,57.52
2022-09-25T14:58:01.343Z,57.41
2022-09-25T15:00:28.333Z,57.54
2022-09-25T15:02:55.187Z,57.61
2022-09-25T15:05:21.465Z,57.81
2022-09-25T15:07:47.857Z,57.60
2022-09-25T15:10:49.605Z,57.54
2022-09-25T15:13:15.999Z,57.87
2022-09-25T15:16:02.430Z,57.85
2022-09-25T15:18:28.818Z,57.90
2022-09-25T15:20:55.344Z,58.11
2022-09-25T15:23:21.677Z,57.97
2022-09-25T15:25:52.746Z,58.07
2022-09-25T15:28:19.785Z,58.15
2022-09-25T15:30:46.392Z,58.22
2022-09-25T15:33:29.189Z,58.09
2022-09-25T15:35:56.167Z,58.10
2022-09-25T15:38:29.485Z,58.34
2022-09-25T15:40:55.918Z,58.18
2022-09-25T15:43:22.355Z,58.33
2022-09-25T15:46:07.121Z,58.26
2022-09-25T15:48:40.201Z,58.21
2022-09-25T15:51:18.479Z,58.23
2022-09-25T15:53:49.178Z,58.28
2022-09-25T15:56:18.201Z,58.37
2022-09-25T15:58:46.291Z,58.63
2022-09-25T16:01:31.836Z,58.47
2022-09-25T16:04:17.137Z,58.46
2022-09-25T16:06:43.701Z,58.58
2022-09-25T16:09:23.467Z,58.54
2022-09-25T16:11:49.775Z,58.78
2022-09-25T16:14:21.975Z,58.61
2022-09-25T16:16:49.749Z,58.81
2022-09-25T16:19:24.882Z,58.58
2022-09-25T16:21:51.196Z,58.79
2022-09-25T16:24:18.162Z,58.62
2022-09-25T16:26:44.511Z,58.67
2022-09-25T16:29:16.506Z,58.61
2022-09-25T16:31:43.350Z,58.84
2022-09-25T16:34:29.235Z,58.66
2022-09-25T16:36:57.642Z,58.99
2022-09-25T16:39:24.863Z,59.06
2022-09-25T16:41:51.305Z,58.98
2022-09-25T16:44:18.860Z,58.97
2022-09-25T16:46:52.064Z,58.70
2022-09-25T16:49:19.989Z,58.74
2022-09-25T16:51:46.310Z,58.77
2022-09-25T16:54:13.868Z,59.08
2022-09-25T16:56:42.115Z,58.93
2022-09-25T16:59:17.366Z,59.08
2022-09-25T17:01:43.817Z,58.97
2022-09-25T17:04:10.686Z,59.01
2022-09-25T17:06:40.733Z,59.20
2022-09-25T17:09:13.618Z,59.05
2022-09-25T17:11:40.475Z,58.92
2022-09-25T17:14:06.817Z,59.17
2022-09-25T17:16:33.988Z,58.97
2022-09-25T17:19:06.621Z,59.15
2022-09-25T17:21:34.006Z,58.91
2022-09-25T17:24:00.331Z,58.87
2022-09-25T17:26:26.658Z,59.36
2022-09-25T17:28:52.963Z,59.37
2022-09-25T17:31:20.187Z,59.51
2022-09-25T17:33:52.601Z,59.72
2022-09-25T17:36:18.955Z,59.83
2022-09-25T17:38:45.301Z,59.74
2022-09-25T17:41:16.319Z,59.83
2022-09-25T17:43:43.076Z,60.02
2022-09-25T17:46:09.455Z,60.27
2022-09-25T17:48:35.797Z,60.09
2022-09-25T17:51:18.456Z,60.33
2022-09-25T17:53:44.830Z,60.18
2022-09-25T17:56:11.264Z,60.05
2022-09-25T17:58:37.581Z,59.97
2022-09-25T18:01:06.615Z,59.07
2022-09-25T18:03:32.977Z,58.51
2022-09-25T18:05:59.299Z,58.54
2022-09-25T18:08:25.599Z,58.59
2022-09-25T18:10:53.174Z,57.85
2022-09-25T18:13:20.163Z,58.15
2022-09-25T18:15:47.654Z,58.27
2022-09-25T18:18:14.019Z,58.32
2022-09-25T18:20:59.026Z,58.22
2022-09-25T18:23:25.353Z,58.20
2022-09-25T18:25:51.694Z,58.64
2022-09-25T18:28:18.043Z,58.75
2022-09-25T18:30:44.416Z,58.98
2022-09-25T18:33:10.783Z,58.97
2022-09-25T18:35:37.117Z,58.88
2022-09-25T18:38:03.499Z,58.71
2022-09-25T18:40:29.846Z,58.84
2022-09-25T18:42:56.217Z,58.52
2022-09-25T18:45:22.529Z,58.88
2022-09-25T18:47:48.855Z,59.75
2022-09-25T18:50:20.514Z,59.22
2022-09-25T18:52:48.434Z,58.93
2022-09-25T18:55:14.739Z,58.90
2022-09-25T18:57:42.613Z,59.12
2022-09-25T19:00:09.063Z,58.90
2022-09-25T19:02:38.840Z,58.77
2022-09-25T19:05:05.841Z,58.87
2022-09-25T19:07:32.171Z,58.91
2022-09-25T19:10:01.361Z,58.90
2022-09-25T19:12:27.696Z,59.03
2022-09-25T19:14:54.014Z,59.16
2022-09-25T19:17:20.361Z,58.82
2022-09-25T19:19:46.665Z,59.17
2022-09-25T19:22:17.768Z,59.09
2022-09-25T19:24:45.948Z,59.12
2022-09-25T19:27:12.632Z,59.00
2022-09-25T19:29:38.957Z,58.86
2022-09-25T19:32:05.694Z,59.01
2022-09-25T19:34:32.029Z,59.18
2022-09-25T19:36:58.533Z,59.20
2022-09-25T19:39:24.850Z,58.90
2022-09-25T19:41:51.235Z,58.91
2022-09-25T19:44:18.260Z,59.01
2022-09-25T19:46:45.148Z,58.99
2022-09-25T19:49:12.055Z,59.02
2022-09-25T19:51:38.558Z,59.03
2022-09-25T19:54:05.381Z,59.02
2022-09-25T19:56:31.807Z,58.93
2022-09-25T19:58:58.241Z,58.99
2022-09-25T20:01:27.459Z,58.88
2022-09-25T20:03:55.648Z,59.01
2022-09-25T20:06:22.127Z,59.21
2022-09-25T20:08:48.653Z,59.14
2022-09-25T20:11:16.666Z,59.03
2022-09-25T20:13:43.068Z,58.96
2022-09-25T20:16:09.916Z,59.09
2022-09-25T20:18:36.330Z,59.25
2022-09-25T20:21:03.388Z,59.22
2022-09-25T20:23:29.707Z,59.10
2022-09-25T20:26:06.021Z,59.16
2022-09-25T20:28:32.350Z,59.36
2022-09-25T20:31:02.458Z,59.23
2022-09-25T20:33:32.477Z,59.25
2022-09-25T20:36:01.351Z,59.18
2022-09-25T20:38:27.714Z,59.41
2022-09-25T20:40:54.102Z,59.32
2022-09-25T20:43:21.522Z,59.16
2022-09-25T20:45:55.578Z,59.17
2022-09-25T20:48:21.952Z,59.20
2022-09-25T20:50:51.546Z,59.35
2022-09-25T20:53:17.891Z,59.33
2022-09-25T20:55:44.239Z,59.19
2022-09-25T20:58:10.550Z,59.38
2022-09-25T21:00:36.870Z,59.25
2022-09-25T21:03:03.980Z,59.30
2022-09-25T21:05:30.319Z,59.41
2022-09-25T21:07:56.631Z,59.35
2022-09-25T21:10:23.351Z,59.35
2022-09-25T21:12:49.671Z,59.67
2022-09-25T21:15:15.998Z,59.57
2022-09-25T21:17:42.320Z,59.45
2022-09-25T21:20:08.869Z,59.37
2022-09-25T21:22:35.837Z,59.54
2022-09-25T21:25:02.177Z,59.58
2022-09-25T21:27:29.494Z,59.53
2022-09-25T21:29:55.832Z,59.40
2022-09-25T21:32:22.157Z,59.32
2022-09-25T21:34:48.518Z,59.34
2022-09-25T21:37:14.833Z,59.46
2022-09-25T21:39:41.159Z,59.35
2022-09-25T21:42:07.480Z,59.43
2022-09-25T21:44:33.806Z,59.52
2022-09-25T21:47:00.487Z,59.32
2022-09-25T21:49:26.895Z,59.63
2022-09-25T21:51:53.240Z,59.50
2022-09-25T21:54:19.564Z,59.58
2022-09-25T21:56:45.903Z,59.66
2022-09-25T21:59:12.500Z,59.62
2022-09-25T22:01:39.948Z,59.62
2022-09-25T22:04:06.779Z,59.70
2022-09-25T22:06:34.082Z,59.66
2022-09-25T22:09:01.273Z,59.61
2022-09-25T22:11:27.583Z,59.76
2022-09-25T22:13:54.489Z,59.59
2022-09-25T22:16:21.582Z,59.71
2022-09-25T22:18:51.638Z,59.80
2022-09-25T22:21:18.745Z,59.76
2022-09-25T22:23:45.050Z,59.56
2022-09-25T22:26:11.663Z,59.76
2022-09-25T22:28:38.050Z,59.60
2022-09-25T22:31:09.640Z,59.72
2022-09-25T22:33:36.034Z,59.77
2022-09-25T22:36:02.671Z,59.66
2022-09-25T22:38:29.238Z,59.80
2022-09-25T22:40:55.727Z,59.80
2022-09-25T22:43:22.147Z,59.86
2022-09-25T22:45:49.237Z,59.68
2022-09-25T22:48:15.606Z,59.72
2022-09-25T22:50:54.810Z,59.94
2022-09-25T22:53:21.724Z,60.08
2022-09-25T22:55:48.077Z,59.85
2022-09-25T22:58:14.703Z,60.03
2022-09-25T23:00:42.808Z,60.09
2022-09-25T23:03:09.523Z,59.97
2022-09-25T23:05:36.865Z,60.08
2022-09-25T23:08:03.251Z,59.90
2022-09-25T23:10:48.693Z,60.00
2022-09-25T23:13:15.877Z,60.00
2022-09-25T23:15:42.204Z,60.15
2022-09-25T23:18:08.539Z,60.21
2022-09-25T23:20:34.853Z,60.16
2022-09-25T23:23:03.419Z,60.01
2022-09-25T23:25:32.496Z,60.06
2022-09-25T23:27:59.699Z,60.18
2022-09-25T23:30:26.107Z,60.05
2022-09-25T23:32:55.540Z,59.94
2022-09-25T23:35:21.875Z,60.12
2022-09-25T23:37:48.201Z,60.10
2022-09-25T23:40:15.830Z,60.11
2022-09-25T23:42:43.289Z,60.11
2022-09-25T23:45:10.007Z,59.98
2022-09-25T23:47:36.335Z,59.93
2022-09-25T23:50:04.839Z,60.02
2022-09-25T23:52:31.403Z,60.14
2022-09-25T23:54:58.463Z,59.99
2022-09-25T23:57:24.795Z,60.14
2022-09-25T23:59:51.150Z,60.10
